Hlavní strana
METAR-TAF:

METAR-TAF

Letiště :

Conakry, Guinea

zeměpisná šířka: 09-34N, zeměpisná délka: 013-37W, výška: 26 m

Aktuální stav počasí

Zpráva byla vytvořena před 19 minutami, v 19:00 UTC
Jižní vítr 10 kt
Teplota 30°C
Vlhkost vzduchu 70%
Tlak 1011 hPa
Viditelnost 10 km a více
Skoro jasno ve výšce 1500 ft

METAR: GUCY 061900Z 18010KT 9999 FEW015 30/24 Q1011 NOSIG

Čas: 19:19 (19:19 UTC)

Předpověď počasí

Zpráva byla vytvořena před 2 hodinami a 19 minutami, v 17:00 UTC
Předpověď platná od 06 v 18 UTC do 07 v 24 UTC
Západní vítr 8 kt
Viditelnost 10 km a více
Žádná oblačnost pod 1500 m, nevyskytují se cumulonimby.
Změna
od 07 v 03 UTC do 07 v 07 UTC
vítr z různých směrů 2 kt
Polojasno ve výšce 1500 ft
Oblačno až skoro zataženo ve výšce 11000 ft

TAF: GUCY 061700Z 0618/0724 27008KT 9999 FEW015 SCT110 TEMPO0 620/0701 CAVOK BECMG 0703/0707 VRB02KT SCT015 BKN110

Stav a předpovědi počasí z více než 4 000 letišť (zprávy METAR a TAF).

Červené a žluté tečky na mapě představují dostupné meteorologické stanice.

Když kurzor umístíte na tečku, zobrazí se název stanice.

Pak kliknutím zobrazíte stav a předpověď počasí.

Chcete-li změnit mapu, kliknutím na zelené tlačítko se znaménkem +mapu přiblížíte, kliknutím na zelené tlačítko se znaménkem – mapu oddálíte a kliknutím na zelené šipky přejdete na sousední mapy.


METAR-TAF: